createdAt,value
2023-04-13T00:01:01.348Z,69.25
2023-04-13T00:04:06.294Z,64.35
2023-04-13T00:07:20.318Z,56.86
2023-04-13T00:10:24.025Z,52.27
2023-04-13T00:13:32.136Z,51.74
2023-04-13T00:16:50.297Z,52.22
2023-04-13T00:19:57.920Z,52.99
2023-04-13T00:22:57.684Z,54.26
2023-04-13T00:25:51.559Z,55.31
2023-04-13T00:29:12.571Z,56.66
2023-04-13T00:32:19.147Z,57.09
2023-04-13T00:35:43.767Z,58.57
2023-04-13T00:39:00.862Z,58.27
2023-04-13T00:42:08.151Z,59.20
2023-04-13T00:45:34.072Z,59.58
2023-04-13T00:48:56.622Z,60.14
2023-04-13T00:51:53.061Z,60.35
2023-04-13T00:55:20.733Z,59.92
2023-04-13T00:58:27.392Z,60.90
2023-04-13T01:01:20.884Z,67.77
2023-04-13T01:04:37.387Z,70.35
2023-04-13T01:08:09.425Z,65.03
2023-04-13T01:11:12.119Z,58.17
2023-04-13T01:14:35.049Z,54.08
2023-04-13T01:17:46.397Z,53.21
2023-04-13T01:20:50.672Z,53.42
2023-04-13T01:24:24.394Z,54.23
2023-04-13T01:28:07.608Z,55.20
2023-04-13T01:31:15.780Z,56.27
2023-04-13T01:34:21.675Z,56.75
2023-04-13T01:37:19.646Z,57.51
2023-04-13T01:40:45.066Z,57.97
2023-04-13T01:44:03.308Z,58.49
2023-04-13T01:47:30.808Z,58.90
2023-04-13T01:50:52.175Z,59.53
2023-04-13T01:54:27.549Z,59.75
2023-04-13T01:57:24.890Z,60.05
2023-04-13T02:00:36.400Z,60.74
2023-04-13T02:03:49.229Z,60.68
2023-04-13T02:07:04.369Z,61.32
2023-04-13T02:10:16.777Z,69.70
2023-04-13T02:13:53.660Z,74.15
2023-04-13T02:17:11.394Z,69.49
2023-04-13T02:20:40.493Z,70.77
2023-04-13T02:24:12.871Z,62.86
2023-04-13T02:27:48.385Z,56.09
2023-04-13T02:31:09.228Z,54.62
2023-04-13T02:34:35.765Z,55.07
2023-04-13T02:38:04.846Z,56.02
2023-04-13T02:41:23.727Z,57.26
2023-04-13T02:44:51.699Z,66.60
2023-04-13T02:48:28.825Z,70.09
2023-04-13T02:51:48.569Z,67.72
2023-04-13T02:55:15.622Z,59.09
2023-04-13T02:59:00.896Z,55.49
2023-04-13T03:02:15.498Z,55.59
2023-04-13T03:06:04.529Z,56.92
2023-04-13T03:09:40.180Z,57.61
2023-04-13T03:12:56.581Z,66.64
2023-04-13T03:16:23.335Z,72.48
2023-04-13T03:19:52.430Z,69.25
2023-04-13T03:23:26.646Z,66.13
2023-04-13T03:26:59.127Z,57.79
2023-04-13T03:30:25.570Z,54.36
2023-04-13T03:34:02.467Z,54.35
2023-04-13T03:37:43.078Z,55.62
2023-04-13T03:41:35.283Z,57.40
2023-04-13T03:45:06.202Z,66.41
2023-04-13T03:48:31.518Z,68.86
2023-04-13T03:52:20.600Z,67.38
2023-04-13T03:55:55.372Z,64.87
2023-04-13T03:59:35.647Z,56.70
2023-04-13T04:03:15.433Z,53.67
2023-04-13T04:06:49.236Z,53.81
2023-04-13T04:10:22.330Z,54.97
2023-04-13T04:13:51.122Z,56.56
2023-04-13T04:17:18.277Z,65.93
2023-04-13T04:21:07.656Z,69.77
2023-04-13T04:24:45.924Z,67.77
2023-04-13T04:28:02.799Z,65.38
2023-04-13T04:31:01.780Z,57.52
2023-04-13T04:33:42.868Z,53.64
2023-04-13T04:36:44.852Z,54.14
2023-04-13T04:39:38.072Z,54.48
2023-04-13T04:42:30.820Z,56.10
2023-04-13T04:45:33.377Z,57.48
2023-04-13T04:48:34.824Z,64.22
2023-04-13T04:51:24.935Z,68.70
2023-04-13T04:54:18.352Z,66.19
2023-04-13T04:57:07.053Z,64.06
2023-04-13T04:59:57.344Z,57.89
2023-04-13T05:02:51.205Z,53.94
2023-04-13T05:05:47.587Z,53.93
2023-04-13T05:08:44.936Z,54.50
2023-04-13T05:11:41.349Z,56.20
2023-04-13T05:14:52.833Z,56.93
2023-04-13T05:17:42.954Z,58.14
2023-04-13T05:20:30.807Z,64.07
2023-04-13T05:23:29.851Z,68.10
2023-04-13T05:26:20.186Z,65.94
2023-04-13T05:29:16.472Z,59.28
2023-04-13T05:32:12.289Z,54.88
2023-04-13T05:35:07.313Z,54.48
2023-04-13T05:38:21.135Z,54.76
2023-04-13T05:41:00.883Z,55.95
2023-04-13T05:43:52.193Z,57.21
2023-04-13T05:46:36.953Z,58.17
2023-04-13T05:49:23.151Z,63.73
2023-04-13T05:52:07.725Z,67.58
2023-04-13T05:55:08.231Z,65.16
2023-04-13T05:57:53.301Z,59.33
2023-04-13T06:00:39.086Z,55.13
2023-04-13T06:03:29.084Z,55.26
2023-04-13T06:06:18.950Z,56.11
2023-04-13T06:09:09.037Z,56.86
2023-04-13T06:11:46.561Z,57.75
2023-04-13T06:14:37.328Z,59.50
2023-04-13T06:17:14.209Z,65.39
2023-04-13T06:20:00.316Z,68.60
2023-04-13T06:22:49.090Z,66.72
2023-04-13T06:25:36.220Z,60.48
2023-04-13T06:28:16.934Z,55.60
2023-04-13T06:31:14.889Z,55.35
2023-04-13T06:34:16.261Z,55.71
2023-04-13T06:37:00.596Z,56.50
2023-04-13T06:39:37.998Z,57.89
2023-04-13T06:42:27.384Z,58.78
2023-04-13T06:45:34.246Z,58.77
2023-04-13T06:48:19.924Z,65.31
2023-04-13T06:51:16.669Z,68.86
2023-04-13T06:53:53.650Z,66.34
2023-04-13T06:56:30.453Z,60.04
2023-04-13T06:59:12.929Z,56.24
2023-04-13T07:01:47.283Z,55.26
2023-04-13T07:04:21.089Z,55.16
2023-04-13T07:07:02.637Z,56.13
2023-04-13T07:09:56.696Z,56.71
2023-04-13T07:12:33.493Z,57.24
2023-04-13T07:15:11.939Z,59.24
2023-04-13T07:18:02.432Z,60.08
2023-04-13T07:20:43.779Z,65.73
2023-04-13T07:23:26.089Z,67.59
2023-04-13T07:26:13.309Z,65.58
2023-04-13T07:28:47.794Z,59.56
2023-04-13T07:31:25.850Z,56.19
2023-04-13T07:34:11.310Z,55.64
2023-04-13T07:36:56.904Z,55.81
2023-04-13T07:39:29.255Z,56.49
2023-04-13T07:42:05.936Z,57.33
2023-04-13T07:44:52.834Z,58.14
2023-04-13T07:47:29.122Z,59.08
2023-04-13T07:50:07.825Z,59.67
2023-04-13T07:52:42.346Z,64.31
2023-04-13T07:55:19.931Z,67.36
2023-04-13T07:57:56.090Z,59.39
2023-04-13T08:00:32.766Z,53.77
2023-04-13T08:03:07.786Z,53.65
2023-04-13T08:05:41.093Z,55.15
2023-04-13T08:08:13.355Z,56.45
2023-04-13T08:10:46.443Z,57.52
2023-04-13T08:13:18.768Z,57.68
2023-04-13T08:15:47.814Z,58.16
2023-04-13T08:18:22.532Z,59.27
2023-04-13T08:20:56.648Z,59.60
2023-04-13T08:23:29.222Z,59.94
2023-04-13T08:26:02.854Z,60.11
2023-04-13T08:28:37.041Z,59.94
2023-04-13T08:31:16.982Z,60.26
2023-04-13T08:33:55.925Z,60.12
2023-04-13T08:36:28.789Z,59.93
2023-04-13T08:39:10.367Z,59.86
2023-04-13T08:41:45.312Z,60.18
2023-04-13T08:44:15.109Z,59.79
2023-04-13T08:46:52.810Z,60.68
2023-04-13T08:49:36.036Z,61.01
2023-04-13T08:52:41.279Z,60.85
2023-04-13T08:55:20.722Z,60.96
2023-04-13T08:57:55.749Z,60.71
2023-04-13T09:00:33.956Z,60.23
2023-04-13T09:03:19.737Z,60.58
2023-04-13T09:06:05.451Z,59.90
2023-04-13T09:08:47.315Z,59.14
2023-04-13T09:11:22.345Z,59.53
2023-04-13T09:13:57.492Z,59.81
2023-04-13T09:16:33.250Z,59.90
2023-04-13T09:19:20.346Z,59.76
2023-04-13T09:21:51.695Z,59.26
2023-04-13T09:24:39.936Z,59.07
2023-04-13T09:27:21.630Z,59.22
2023-04-13T09:29:57.345Z,59.41
2023-04-13T09:32:29.008Z,59.65
2023-04-13T09:35:10.106Z,60.13
2023-04-13T09:37:46.169Z,59.89
2023-04-13T09:40:20.573Z,60.18
2023-04-13T09:43:09.956Z,60.69
2023-04-13T09:45:45.498Z,60.58
2023-04-13T09:48:25.861Z,59.19
2023-04-13T09:51:06.419Z,59.17
2023-04-13T09:53:49.761Z,59.39
2023-04-13T09:56:24.677Z,59.66
2023-04-13T09:59:05.550Z,59.71
2023-04-13T10:01:41.094Z,60.27
2023-04-13T10:04:24.344Z,60.29
2023-04-13T10:07:13.509Z,60.61
2023-04-13T10:09:56.644Z,61.10
2023-04-13T10:12:40.235Z,65.86
2023-04-13T10:15:58.680Z,65.71
2023-04-13T10:18:42.428Z,58.36
2023-04-13T10:21:21.144Z,56.73
2023-04-13T10:23:57.862Z,57.53
2023-04-13T10:26:39.328Z,57.74
2023-04-13T10:29:14.999Z,57.87
2023-04-13T10:32:06.484Z,57.91
2023-04-13T10:34:43.856Z,57.98
2023-04-13T10:37:32.810Z,58.21
2023-04-13T10:40:10.715Z,59.43
2023-04-13T10:42:53.407Z,59.18
2023-04-13T10:45:38.007Z,58.63
2023-04-13T10:48:22.437Z,58.75
2023-04-13T10:51:05.657Z,59.38
2023-04-13T10:53:45.792Z,58.72
2023-04-13T10:56:35.004Z,59.52
2023-04-13T10:59:20.301Z,59.45
2023-04-13T11:02:01.087Z,58.86
2023-04-13T11:04:49.564Z,58.59
2023-04-13T11:07:46.361Z,58.99
2023-04-13T11:10:32.308Z,58.69
2023-04-13T11:13:10.302Z,58.71
2023-04-13T11:15:55.062Z,57.65
2023-04-13T11:18:44.431Z,57.55
2023-04-13T11:21:21.132Z,57.43
2023-04-13T11:24:23.485Z,57.13
2023-04-13T11:27:16.433Z,56.96
2023-04-13T11:30:23.532Z,58.58
2023-04-13T11:33:04.025Z,58.92
2023-04-13T11:35:50.337Z,58.74
2023-04-13T11:38:32.665Z,58.62
2023-04-13T11:41:17.133Z,58.42
2023-04-13T11:44:10.490Z,57.87
2023-04-13T11:46:57.814Z,55.52
2023-04-13T11:49:48.052Z,55.43
2023-04-13T11:52:33.972Z,55.29
2023-04-13T11:55:25.672Z,55.92
2023-04-13T11:58:15.804Z,56.80
2023-04-13T12:01:19.369Z,57.15
2023-04-13T12:04:14.647Z,58.28
2023-04-13T12:07:20.792Z,59.67
2023-04-13T12:10:22.523Z,60.20
2023-04-13T12:13:35.819Z,61.18
2023-04-13T12:19:30.289Z,67.13
2023-04-13T12:22:23.896Z,69.26
2023-04-13T12:25:35.103Z,66.65
2023-04-13T12:28:15.483Z,61.93
2023-04-13T12:30:55.114Z,56.84
2023-04-13T12:33:37.865Z,54.89
2023-04-13T12:36:31.415Z,54.86
2023-04-13T12:39:34.118Z,55.38
2023-04-13T12:42:17.817Z,55.25
2023-04-13T12:45:21.315Z,55.74
2023-04-13T12:48:10.430Z,56.28
2023-04-13T12:50:59.332Z,57.11
2023-04-13T12:53:52.601Z,57.34
2023-04-13T12:56:46.888Z,57.52
2023-04-13T12:59:35.882Z,58.60
2023-04-13T13:02:24.170Z,58.55
2023-04-13T13:05:16.839Z,59.31
2023-04-13T13:08:07.227Z,59.65
2023-04-13T13:10:58.741Z,58.94
2023-04-13T13:13:48.529Z,59.14
2023-04-13T13:16:44.790Z,59.06
2023-04-13T13:19:27.861Z,59.83
2023-04-13T13:22:30.757Z,60.75
2023-04-13T13:25:35.530Z,65.60
2023-04-13T13:28:22.806Z,67.03
2023-04-13T13:31:19.934Z,66.03
2023-04-13T13:34:01.751Z,65.81
2023-04-13T13:36:51.338Z,60.88
2023-04-13T13:39:47.250Z,56.96
2023-04-13T13:42:50.095Z,56.24
2023-04-13T13:45:34.379Z,57.07
2023-04-13T13:48:22.214Z,57.90
2023-04-13T13:51:25.818Z,59.03
2023-04-13T13:54:22.914Z,60.03
2023-04-13T13:57:12.132Z,64.03
2023-04-13T14:00:16.253Z,66.77
2023-04-13T14:03:14.339Z,65.04
2023-04-13T14:06:36.115Z,63.18
2023-04-13T14:09:53.624Z,63.50
2023-04-13T14:13:32.199Z,64.22
2023-04-13T14:17:11.272Z,63.61
2023-04-13T14:20:59.477Z,63.19
2023-04-13T14:24:48.611Z,63.44
2023-04-13T14:28:31.929Z,62.84
2023-04-13T14:32:09.594Z,62.59
2023-04-13T14:35:58.664Z,58.39
2023-04-13T14:39:47.731Z,57.20
2023-04-13T14:43:36.821Z,58.04
2023-04-13T14:47:17.748Z,64.66
2023-04-13T14:51:03.865Z,67.11
2023-04-13T14:54:45.163Z,66.53
2023-04-13T14:58:25.743Z,66.87
2023-04-13T15:02:07.757Z,66.45
2023-04-13T15:05:33.383Z,66.23
2023-04-13T15:09:22.534Z,65.46
2023-04-13T15:12:50.689Z,65.22
2023-04-13T15:16:16.419Z,64.96
2023-04-13T15:19:46.528Z,64.49
2023-04-13T15:23:12.355Z,64.14
2023-04-13T15:26:56.347Z,63.78
2023-04-13T15:30:04.475Z,63.48
2023-04-13T15:33:53.581Z,63.69
2023-04-13T15:37:24.558Z,63.58
2023-04-13T15:41:03.776Z,63.72
2023-04-13T15:44:35.630Z,63.47
2023-04-13T15:48:09.544Z,63.60
2023-04-13T15:52:01.576Z,63.79
2023-04-13T15:55:24.841Z,63.74
2023-04-13T15:59:14.006Z,63.65
2023-04-13T16:03:03.473Z,63.50
2023-04-13T16:07:05.068Z,63.40
2023-04-13T16:10:48.057Z,63.69
2023-04-13T16:14:30.508Z,63.41
2023-04-13T16:18:12.089Z,63.07
2023-04-13T16:22:01.270Z,62.96
2023-04-13T16:25:50.421Z,62.99
2023-04-13T16:29:33.543Z,62.92
2023-04-13T16:33:15.652Z,62.99
2023-04-13T16:37:04.896Z,63.00
2023-04-13T16:40:52.965Z,62.76
2023-04-13T16:44:20.843Z,62.63
2023-04-13T16:47:53.849Z,62.53
2023-04-13T16:51:43.008Z,62.29
2023-04-13T16:55:31.419Z,62.25
2023-04-13T16:59:20.827Z,62.49
2023-04-13T17:03:06.992Z,62.75
2023-04-13T17:06:42.370Z,63.00
2023-04-13T17:10:10.848Z,62.77
2023-04-13T17:13:53.037Z,62.88
2023-04-13T17:17:30.792Z,62.76
2023-04-13T17:21:11.028Z,62.64
2023-04-13T17:25:00.173Z,62.54
2023-04-13T17:28:39.354Z,62.77
2023-04-13T17:32:28.205Z,62.86
2023-04-13T17:36:16.289Z,63.00
2023-04-13T17:40:08.496Z,63.23
2023-04-13T17:43:46.618Z,63.30
2023-04-13T17:47:22.268Z,63.22
2023-04-13T17:50:50.102Z,63.13
2023-04-13T17:54:21.076Z,63.20
2023-04-13T17:57:41.770Z,63.17
2023-04-13T18:01:15.523Z,63.27
2023-04-13T18:05:03.934Z,63.31
2023-04-13T18:08:33.606Z,63.25
2023-04-13T18:12:22.681Z,63.16
2023-04-13T18:15:56.696Z,62.99
2023-04-13T18:19:37.832Z,62.95
2023-04-13T18:23:26.952Z,63.02
2023-04-13T18:27:16.037Z,63.16
2023-04-13T18:30:58.490Z,63.07
2023-04-13T18:34:36.267Z,62.84
2023-04-13T18:38:12.849Z,62.92
2023-04-13T18:41:39.046Z,62.99
2023-04-13T18:45:29.583Z,62.81
2023-04-13T18:49:11.787Z,62.98
2023-04-13T18:52:57.390Z,62.98
2023-04-13T18:56:31.907Z,62.86
2023-04-13T19:00:21.000Z,62.74
2023-04-13T19:04:10.216Z,62.82
2023-04-13T19:07:52.521Z,62.95
2023-04-13T19:11:28.424Z,62.83
2023-04-13T19:15:10.584Z,62.97
2023-04-13T19:18:59.374Z,63.05
2023-04-13T19:22:32.267Z,62.97
2023-04-13T19:26:21.271Z,62.99
2023-04-13T19:29:49.731Z,62.81
2023-04-13T19:33:38.886Z,62.90
2023-04-13T19:37:14.742Z,63.01
2023-04-13T19:40:48.966Z,63.06
2023-04-13T19:44:31.169Z,63.21
2023-04-13T19:48:17.170Z,63.45
2023-04-13T19:52:06.281Z,63.64
2023-04-13T19:55:37.919Z,63.83
2023-04-13T19:59:27.135Z,63.76
2023-04-13T20:03:03.190Z,64.04
2023-04-13T20:06:52.711Z,64.58
2023-04-13T20:10:42.082Z,64.75
2023-04-13T20:14:30.332Z,65.04
2023-04-13T20:18:19.626Z,65.06
2023-04-13T20:22:08.783Z,65.30
2023-04-13T20:25:57.896Z,65.11
2023-04-13T20:29:46.984Z,65.25
2023-04-13T20:33:36.056Z,65.12
2023-04-13T20:37:25.279Z,65.06
2023-04-13T20:41:14.357Z,64.58
2023-04-13T20:45:03.484Z,64.09
2023-04-13T20:48:52.405Z,64.17
2023-04-13T20:52:41.569Z,64.34
2023-04-13T20:56:30.681Z,63.89
2023-04-13T21:00:18.130Z,63.68
2023-04-13T21:04:00.240Z,63.52
2023-04-13T21:07:53.069Z,63.49
2023-04-13T21:11:41.677Z,63.39
2023-04-13T21:15:30.939Z,63.33
2023-04-13T21:19:13.002Z,63.31
2023-04-13T21:23:00.867Z,63.18
2023-04-13T21:26:50.127Z,63.04
2023-04-13T21:30:24.859Z,62.96
2023-04-13T21:34:14.234Z,62.92
2023-04-13T21:37:54.290Z,62.71
2023-04-13T21:41:37.521Z,62.62
2023-04-13T21:45:24.255Z,62.67
2023-04-13T21:49:06.416Z,62.73
2023-04-13T21:52:39.719Z,62.54
2023-04-13T21:56:28.537Z,62.50
2023-04-13T22:00:17.597Z,62.43
2023-04-13T22:03:46.541Z,62.24
2023-04-13T22:07:42.283Z,62.12
2023-04-13T22:11:15.703Z,62.26
2023-04-13T22:14:57.360Z,62.29
2023-04-13T22:18:45.441Z,62.28
2023-04-13T22:22:22.321Z,62.41
2023-04-13T22:26:11.418Z,62.62
2023-04-13T22:29:40.346Z,62.45
2023-04-13T22:33:19.926Z,62.31
2023-04-13T22:37:08.567Z,62.33
2023-04-13T22:40:42.288Z,62.13
2023-04-13T22:44:25.448Z,62.16
2023-04-13T22:48:04.835Z,62.27
2023-04-13T22:51:54.132Z,62.07
2023-04-13T22:55:36.303Z,61.95
2023-04-13T22:59:25.216Z,62.07
2023-04-13T23:03:06.910Z,62.28
2023-04-13T23:06:59.038Z,62.28
2023-04-13T23:10:32.614Z,62.50
2023-04-13T23:14:06.582Z,62.67
2023-04-13T23:17:40.518Z,62.74
2023-04-13T23:21:29.759Z,62.71
2023-04-13T23:25:01.407Z,62.99
2023-04-13T23:28:49.475Z,63.13
2023-04-13T23:32:24.395Z,63.08
2023-04-13T23:36:07.922Z,63.31
2023-04-13T23:39:57.046Z,63.43
2023-04-13T23:43:37.700Z,63.39
2023-04-13T23:47:19.583Z,63.21
2023-04-13T23:51:08.837Z,63.21
2023-04-13T23:54:44.690Z,63.26
2023-04-13T23:58:36.642Z,63.25
